Time;durP1;ratioP1;P1;durP2;ratioP2;P2;SDS_P1;SDS_P2;PMS_P1;PMS_P2;Temp;Humidity;BMP_temperature;BMP_pressure;BME280_temperature;BME280_humidity;BME280_pressure;Samples;Min_cycle;Max_cycle;Signal;HPM_P1;HPM_P2
2022/07/30 00:01:54;;;;;;;6.85;2.98;;;;;;;20.06;68.12;98853.14;2157853;83;20957;-83
2022/07/30 00:04:54;;;;;;;6.83;3.40;;;;;;;20.42;67.09;98853.95;2157833;83;20965;-84
2022/07/30 00:08:01;;;;;;;5.78;3.22;;;;;;;20.72;67.25;98846.91;2157339;83;21359;-84
2022/07/30 00:11:01;;;;;;;6.00;3.30;;;;;;;20.48;66.25;98843.64;2157491;83;20960;-82
2022/07/30 00:14:04;;;;;;;6.97;3.58;;;;;;;20.67;67.10;98832.92;2157664;83;20949;-82
2022/07/30 00:17:04;;;;;;;8.98;3.27;;;;;;;21.04;66.15;98833.18;2157619;83;20953;-83
2022/07/30 00:20:05;;;;;;;10.15;3.27;;;;;;;21.17;65.42;98834.54;2157252;83;20933;-82
2022/07/30 00:23:05;;;;;;;6.60;2.67;;;;;;;21.22;65.04;98825.55;2157347;83;21359;-82
2022/07/30 00:26:06;;;;;;;4.90;3.10;;;;;;;21.39;64.84;98826.34;2157158;83;21261;-82
2022/07/30 00:29:06;;;;;;;9.90;3.30;;;;;;;21.38;64.40;98825.06;2157165;83;20913;-82
2022/07/30 00:32:06;;;;;;;5.25;3.10;;;;;;;21.52;64.42;98822.38;2157575;83;20909;-82
2022/07/30 00:35:07;;;;;;;6.58;3.00;;;;;;;21.62;64.05;98817.63;2157564;83;21269;-82
2022/07/30 00:38:07;;;;;;;6.47;3.33;;;;;;;21.64;63.72;98814.45;2157207;83;21017;-82
2022/07/30 00:41:08;;;;;;;4.17;2.85;;;;;;;21.62;64.03;98814.51;2157497;83;20941;-81
2022/07/30 00:44:08;;;;;;;6.20;3.25;;;;;;;21.64;63.46;98809.14;2157338;83;20929;-82
2022/07/30 00:47:08;;;;;;;5.12;3.20;;;;;;;21.68;63.50;98804.63;2157158;83;20913;-83
2022/07/30 00:50:09;;;;;;;7.00;3.22;;;;;;;21.74;63.27;98803.09;2157201;83;20922;-82
2022/07/30 00:53:09;;;;;;;4.47;2.80;;;;;;;21.55;63.23;98798.37;2157362;83;21253;-82
2022/07/30 00:56:09;;;;;;;5.70;3.05;;;;;;;21.49;62.95;98793.27;2156824;82;21006;-83
2022/07/30 00:59:10;;;;;;;5.12;2.70;;;;;;;20.99;63.35;98788.21;2157335;83;20949;-82
2022/07/30 01:02:13;;;;;;;4.17;2.80;;;;;;;20.63;64.10;98783.08;2157184;83;20957;-83
2022/07/30 01:05:13;;;;;;;5.23;3.03;;;;;;;20.25;64.35;98780.17;2157383;83;20897;-83
2022/07/30 01:08:14;;;;;;;5.83;3.50;;;;;;;19.82;65.32;98781.77;2157136;83;21200;-82
2022/07/30 01:11:14;;;;;;;6.20;3.37;;;;;;;19.35;67.12;98776.33;2157393;83;20961;-83
2022/07/30 01:14:16;;;;;;;7.08;3.55;;;;;;;18.85;68.48;98777.48;2157247;83;20941;-83
2022/07/30 01:17:16;;;;;;;5.40;3.72;;;;;;;18.43;70.30;98780.12;2157099;83;20906;-83
2022/07/30 01:20:16;;;;;;;4.25;3.08;;;;;;;18.25;71.55;98772.12;2157181;83;21013;-83
2022/07/30 01:23:17;;;;;;;7.85;3.00;;;;;;;18.31;72.19;98769.34;2157342;83;20918;-83
2022/07/30 01:26:17;;;;;;;6.22;3.33;;;;;;;18.37;71.94;98765.27;2157331;83;20921;-83
2022/07/30 01:29:18;;;;;;;3.25;2.80;;;;;;;18.27;72.37;98766.80;2157115;83;21281;-83
2022/07/30 01:32:18;;;;;;;6.92;3.35;;;;;;;18.15;72.66;98764.80;2157396;83;20922;-83
2022/07/30 01:35:18;;;;;;;9.10;3.45;;;;;;;18.05;72.86;98759.72;2157335;83;20949;-83
2022/07/30 01:38:20;;;;;;;9.45;3.33;;;;;;;17.99;73.59;98758.52;2157288;83;21004;-83
2022/07/30 01:41:19;;;;;;;7.95;3.47;;;;;;;17.88;74.52;98753.89;2157612;83;21316;-82
2022/07/30 01:44:20;;;;;;;6.05;3.00;;;;;;;17.74;74.92;98752.83;2157860;83;20953;-84
2022/07/30 01:47:20;;;;;;;3.92;2.98;;;;;;;17.63;75.44;98750.80;2157666;83;20921;-83
2022/07/30 01:50:21;;;;;;;4.30;3.20;;;;;;;17.56;75.87;98747.41;2158429;83;20953;-83
2022/07/30 01:53:21;;;;;;;3.87;3.50;;;;;;;17.54;76.36;98738.64;2158299;83;20925;-83
2022/07/30 01:56:21;;;;;;;6.33;3.12;;;;;;;17.54;77.12;98739.97;2157777;81;20953;-83
2022/07/30 01:59:22;;;;;;;5.67;3.20;;;;;;;17.43;77.36;98740.16;2157915;83;21257;-82
2022/07/30 02:02:22;;;;;;;6.25;3.30;;;;;;;17.40;76.91;98733.61;2157817;83;20980;-82
2022/07/30 02:05:23;;;;;;;6.95;3.62;;;;;;;17.41;77.72;98727.88;2157909;83;20961;-83
2022/07/30 02:08:23;;;;;;;6.70;3.52;;;;;;;17.38;77.76;98718.70;2157557;82;21438;-82
2022/07/30 02:14:42;;;;;;;4.15;2.87;;;;;;;17.36;78.22;98704.22;2157639;83;20909;-82
2022/07/30 02:17:43;;;;;;;8.55;3.27;;;;;;;17.32;78.99;98703.81;2157539;83;20898;-82
2022/07/30 02:20:43;;;;;;;7.75;4.00;;;;;;;17.28;78.78;98699.94;2157520;83;21004;-82
2022/07/30 02:23:43;;;;;;;8.88;3.50;;;;;;;17.23;79.30;98701.34;2157466;83;20976;-82
2022/07/30 02:26:45;;;;;;;113.80;9.98;;;;;;;17.20;79.61;98693.48;2157688;83;20929;-86
2022/07/30 02:29:44;;;;;;;16.55;4.97;;;;;;;17.16;80.13;98694.42;2157839;83;20913;-83
2022/07/30 02:32:45;;;;;;;7.97;4.08;;;;;;;17.15;80.38;98688.73;2157449;83;21297;-82
2022/07/30 02:35:45;;;;;;;9.08;4.20;;;;;;;17.09;79.97;98688.38;2157314;83;20989;-83
2022/07/30 02:38:45;;;;;;;3.67;3.12;;;;;;;17.05;80.06;98695.92;2157294;83;20996;-83
2022/07/30 02:41:46;;;;;;;3.90;3.45;;;;;;;17.04;80.01;98699.45;2157743;83;20925;-83
2022/07/30 02:44:46;;;;;;;5.72;3.60;;;;;;;17.02;80.30;98692.02;2158084;83;21309;-82
2022/07/30 02:47:47;;;;;;;7.22;3.85;;;;;;;16.97;80.06;98693.86;2157603;83;20953;-83
2022/07/30 02:50:47;;;;;;;6.10;4.28;;;;;;;16.95;80.35;98689.06;2157731;83;20949;-83
2022/07/30 02:53:47;;;;;;;5.95;4.17;;;;;;;16.92;81.07;98684.28;2157881;83;20949;-83
2022/07/30 02:56:48;;;;;;;5.40;3.80;;;;;;;16.93;80.96;98677.67;2163868;82;21060;-83
2022/07/30 02:59:48;;;;;;;13.53;4.12;;;;;;;16.97;81.37;98681.13;2164327;82;20889;-83
2022/07/30 03:02:49;;;;;;;5.25;3.60;;;;;;;16.97;81.15;98676.72;2164418;82;20956;-83
2022/07/30 03:05:49;;;;;;;5.05;3.85;;;;;;;16.97;81.35;98662.22;2164433;82;20885;-82
2022/07/30 03:08:49;;;;;;;4.35;3.87;;;;;;;16.98;81.50;98665.73;2164124;82;20949;-83
2022/07/30 03:11:50;;;;;;;6.65;4.08;;;;;;;16.97;81.56;98663.54;2164099;82;20894;-82
2022/07/30 03:14:50;;;;;;;7.85;3.55;;;;;;;17.01;81.44;98675.78;2164596;82;20945;-83
2022/07/30 03:17:51;;;;;;;8.28;3.50;;;;;;;17.06;81.49;98682.30;2164068;82;20905;-81
2022/07/30 03:20:51;;;;;;;4.60;3.83;;;;;;;17.06;81.29;98683.16;2164077;82;20921;-81
2022/07/30 03:23:51;;;;;;;6.78;3.80;;;;;;;17.14;81.44;98686.54;2164236;82;21325;-82
2022/07/30 03:26:52;;;;;;;7.08;3.60;;;;;;;17.23;81.22;98676.73;2164061;82;21319;-82
2022/07/30 03:29:54;;;;;;;6.45;3.87;;;;;;;17.27;81.43;98679.28;2164402;82;20945;-81
2022/07/30 03:32:54;;;;;;;8.30;3.85;;;;;;;17.29;81.69;98677.94;2164345;82;20953;-81
2022/07/30 03:35:55;;;;;;;7.55;4.37;;;;;;;17.30;82.13;98667.36;2163635;82;20885;-82
2022/07/30 03:38:55;;;;;;;4.65;3.75;;;;;;;17.28;82.06;98667.83;2163525;82;20983;-83
2022/07/30 03:41:55;;;;;;;7.62;4.00;;;;;;;17.26;81.95;98671.40;2162944;82;21292;-82
2022/07/30 03:44:56;;;;;;;8.78;4.22;;;;;;;17.28;82.21;98668.28;2163402;82;20909;-82
2022/07/30 03:47:56;;;;;;;6.15;4.05;;;;;;;17.26;82.04;98670.95;2163909;82;20917;-82
2022/07/30 03:50:57;;;;;;;6.67;3.87;;;;;;;17.28;81.83;98670.47;2163804;82;20945;-82
2022/07/30 03:54:00;;;;;;;9.63;4.37;;;;;;;17.35;81.82;98670.81;2163715;82;20921;-81
2022/07/30 03:57:00;;;;;;;5.63;4.30;;;;;;;17.40;82.01;98670.28;2163131;82;21352;-81
2022/07/30 04:00:01;;;;;;;12.73;5.00;;;;;;;17.45;82.87;98678.11;2162987;82;20921;-82
2022/07/30 04:03:01;;;;;;;17.70;4.97;;;;;;;17.44;82.75;98685.16;2162108;82;20985;-82
2022/07/30 04:06:01;;;;;;;10.78;4.58;;;;;;;17.44;82.36;98693.53;2162431;82;20925;-82
2022/07/30 04:09:02;;;;;;;6.55;4.53;;;;;;;17.47;82.00;98702.70;2162798;82;20988;-81
2022/07/30 04:12:02;;;;;;;7.47;4.40;;;;;;;17.49;82.42;98703.09;2162444;82;20893;-82
2022/07/30 04:15:03;;;;;;;9.30;4.60;;;;;;;17.53;82.44;98705.23;2162469;82;21296;-82
2022/07/30 04:18:03;;;;;;;5.70;4.60;;;;;;;17.54;82.24;98699.06;2162880;82;20917;-81
2022/07/30 04:21:03;;;;;;;7.92;4.72;;;;;;;17.54;82.03;98703.02;2163501;82;21004;-84
2022/07/30 04:24:04;;;;;;;8.90;4.70;;;;;;;17.57;83.28;98705.59;2163985;82;20885;-83
2022/07/30 04:27:04;;;;;;;6.05;3.83;;;;;;;18.18;84.59;98700.46;2163766;82;20948;-83
2022/07/30 04:30:05;;;;;;;6.97;4.08;;;;;;;18.83;83.06;98700.83;2163689;82;20925;-83
2022/07/30 04:33:05;;;;;;;8.05;4.20;;;;;;;19.34;80.99;98698.70;2162984;82;21313;-84
2022/07/30 04:36:05;;;;;;;5.55;4.00;;;;;;;19.74;79.52;98713.56;2163255;82;20921;-84
2022/07/30 04:39:06;;;;;;;8.25;4.20;;;;;;;20.11;78.32;98712.13;2163168;82;21373;-84
2022/07/30 04:42:06;;;;;;;5.75;4.40;;;;;;;20.37;76.19;98714.01;2163065;82;20983;-83
2022/07/30 04:45:07;;;;;;;9.28;4.22;;;;;;;20.44;75.31;98713.41;2163229;82;20882;-83
2022/07/30 04:48:07;;;;;;;6.70;4.58;;;;;;;20.52;74.38;98718.89;2164055;82;20949;-85
2022/07/30 04:51:07;;;;;;;10.00;4.72;;;;;;;20.35;73.21;98718.03;2164384;82;20925;-85
2022/07/30 04:54:08;;;;;;;13.13;4.80;;;;;;;19.77;72.57;98721.89;2163300;82;20898;-85
2022/07/30 04:57:08;;;;;;;8.68;4.65;;;;;;;19.49;74.13;98719.06;2166916;81;20961;-83
2022/07/30 05:00:09;;;;;;;12.53;4.58;;;;;;;19.62;75.37;98721.39;2168666;82;21332;-82
2022/07/30 05:03:09;;;;;;;11.45;5.15;;;;;;;19.85;74.67;98715.92;2159632;82;20961;-81
2022/07/30 05:06:10;;;;;;;9.28;5.20;;;;;;;19.98;74.55;98708.08;2157058;83;20933;-83
2022/07/30 05:09:10;;;;;;;10.58;5.00;;;;;;;20.21;74.17;98714.05;2157196;83;21384;-82
2022/07/30 05:12:10;;;;;;;7.75;4.97;;;;;;;20.44;73.33;98719.57;2157071;83;20957;-83
2022/07/30 05:15:11;;;;;;;8.10;5.37;;;;;;;20.54;72.79;98721.49;2156656;83;20965;-82
2022/07/30 05:18:11;;;;;;;7.35;5.20;;;;;;;20.64;72.57;98720.30;2157188;83;20981;-83
2022/07/30 05:21:11;;;;;;;6.50;5.08;;;;;;;20.74;72.29;98717.77;2156948;83;21048;-83
2022/07/30 05:24:12;;;;;;;6.70;4.40;;;;;;;20.88;72.08;98714.72;2156900;83;20937;-83
2022/07/30 05:27:12;;;;;;;7.20;5.03;;;;;;;21.03;71.80;98708.91;2156368;83;20994;-83
2022/07/30 05:30:13;;;;;;;12.23;5.00;;;;;;;21.14;71.20;98703.26;2156338;83;20957;-83
2022/07/30 05:33:13;;;;;;;6.15;4.97;;;;;;;21.19;70.76;98700.86;2155927;83;21283;-82
2022/07/30 05:36:13;;;;;;;8.43;5.10;;;;;;;21.29;70.38;98698.34;2156357;83;20973;-82
2022/07/30 05:39:15;;;;;;;6.80;4.45;;;;;;;21.29;70.36;98692.16;2156284;83;20988;-82
2022/07/30 05:42:14;;;;;;;5.78;4.47;;;;;;;21.16;70.26;98689.48;2156437;83;21435;-82
2022/07/30 05:45:15;;;;;;;5.53;4.50;;;;;;;21.24;70.37;98683.48;2157536;83;21133;-82
2022/07/30 05:48:16;;;;;;;5.37;3.60;;;;;;;21.28;70.03;98686.45;2158144;83;20922;-84
2022/07/30 05:51:18;;;;;;;12.68;4.47;;;;;;;21.18;69.77;98682.33;2156904;83;20898;-81
2022/07/30 05:54:17;;;;;;;8.08;4.12;;;;;;;21.11;70.39;98681.67;2157218;83;20934;-84
2022/07/30 05:57:17;;;;;;;8.05;4.30;;;;;;;21.23;70.79;98684.41;2158358;82;21462;-83
2022/07/30 06:00:17;;;;;;;7.28;3.98;;;;;;;21.33;70.15;98679.19;2157607;83;21013;-84
2022/07/30 06:03:18;;;;;;;5.42;3.95;;;;;;;21.30;69.99;98684.61;2158238;83;20969;-83
2022/07/30 06:06:21;;;;;;;4.85;3.58;;;;;;;21.33;70.12;98675.67;2158183;83;21265;-84
2022/07/30 06:09:22;;;;;;;6.05;4.03;;;;;;;21.23;69.73;98675.11;2158823;83;20980;-84
2022/07/30 06:12:22;;;;;;;7.50;4.25;;;;;;;21.18;70.31;98672.58;2158219;83;21076;-84
2022/07/30 06:15:22;;;;;;;5.78;4.20;;;;;;;21.26;70.12;98672.36;2157943;83;20943;-83
2022/07/30 06:18:23;;;;;;;5.22;4.17;;;;;;;21.29;70.47;98668.27;2157973;83;20996;-82
2022/07/30 06:21:23;;;;;;;5.22;4.20;;;;;;;21.39;70.17;98672.80;2157855;83;20997;-84
2022/07/30 06:24:24;;;;;;;6.97;4.30;;;;;;;21.49;70.05;98678.20;2158003;83;20984;-84
2022/07/30 06:27:26;;;;;;;7.78;4.15;;;;;;;21.74;69.91;98684.88;2157759;83;21376;-84
2022/07/30 06:30:24;;;;;;;5.90;3.98;;;;;;;22.04;69.49;98681.14;2158236;83;20954;-83
2022/07/30 06:33:25;;;;;;;5.67;3.95;;;;;;;22.24;68.53;98679.93;2158185;83;20969;-83
2022/07/30 06:36:25;;;;;;;6.47;3.95;;;;;;;22.23;67.10;98677.33;2157848;83;20905;-84
2022/07/30 06:39:26;;;;;;;7.10;4.03;;;;;;;22.12;68.17;98679.06;2157137;83;21012;-84
2022/07/30 06:42:27;;;;;;;5.72;4.15;;;;;;;22.13;67.69;98672.82;2157522;83;20957;-84
2022/07/30 06:45:26;;;;;;;5.62;4.17;;;;;;;22.18;67.74;98674.84;2157863;83;20938;-83
2022/07/30 06:48:27;;;;;;;8.58;4.00;;;;;;;22.22;67.59;98677.79;2157758;83;21398;-84
2022/07/30 06:51:27;;;;;;;10.43;4.30;;;;;;;22.24;67.51;98671.95;2157876;83;20929;-83
2022/07/30 06:54:28;;;;;;;9.73;3.92;;;;;;;22.45;67.57;98672.05;2157885;83;20901;-84
2022/07/30 06:57:28;;;;;;;9.68;4.33;;;;;;;22.63;67.20;98672.70;2157736;82;20941;-83
2022/07/30 07:00:29;;;;;;;9.10;4.62;;;;;;;22.61;65.87;98671.89;2156986;83;20976;-83
2022/07/30 07:03:29;;;;;;;7.55;4.72;;;;;;;22.68;66.04;98678.70;2157848;83;20969;-83
2022/07/30 07:06:29;;;;;;;10.63;5.28;;;;;;;22.75;65.84;98682.84;2157183;83;20953;-83
2022/07/30 07:09:33;;;;;;;10.10;4.58;;;;;;;22.70;65.54;98671.52;2156319;83;20977;-83
2022/07/30 07:12:33;;;;;;;7.42;4.60;;;;;;;22.67;65.53;98670.31;2156452;83;20937;-83
2022/07/30 07:15:33;;;;;;;9.50;4.62;;;;;;;23.01;65.45;98666.32;2156293;83;20926;-83
2022/07/30 07:18:34;;;;;;;6.08;4.37;;;;;;;23.22;65.01;98657.44;2156376;83;20974;-84
2022/07/30 07:21:34;;;;;;;7.67;4.40;;;;;;;23.50;64.78;98663.34;2157096;83;21661;-83
2022/07/30 07:24:35;;;;;;;6.30;4.30;;;;;;;23.67;63.39;98649.79;2156746;83;20926;-83
2022/07/30 07:27:35;;;;;;;7.30;4.90;;;;;;;23.60;63.52;98645.66;2156602;83;20958;-83
2022/07/30 07:30:35;;;;;;;8.90;4.62;;;;;;;23.55;63.17;98647.66;2156456;83;20906;-83
2022/07/30 07:33:36;;;;;;;11.30;5.15;;;;;;;23.58;63.45;98643.06;2156511;83;21411;-83
2022/07/30 07:36:36;;;;;;;5.45;4.55;;;;;;;23.87;63.23;98658.23;2156800;83;20917;-83
2022/07/30 07:39:37;;;;;;;8.83;5.58;;;;;;;24.03;62.78;98661.47;2156603;83;21017;-82
2022/07/30 07:42:37;;;;;;;12.50;5.20;;;;;;;24.29;62.09;98654.13;2156312;83;20976;-82
2022/07/30 07:45:38;;;;;;;12.80;5.17;;;;;;;24.45;61.50;98647.14;2156035;83;20926;-82
2022/07/30 07:48:38;;;;;;;17.35;4.42;;;;;;;24.60;60.90;98641.53;2156398;83;20921;-83
2022/07/30 07:51:38;;;;;;;12.20;5.25;;;;;;;24.90;60.57;98632.03;2156443;83;21020;-83
2022/07/30 07:54:39;;;;;;;15.45;4.95;;;;;;;25.19;59.08;98629.77;2156677;83;21064;-83
2022/07/30 07:57:39;;;;;;;17.90;4.40;;;;;;;25.26;59.17;98629.37;2156705;83;20922;-82
2022/07/30 08:00:39;;;;;;;11.53;5.22;;;;;;;25.40;58.41;98632.68;2156749;83;21412;-83
2022/07/30 08:03:40;;;;;;;9.83;4.80;;;;;;;25.32;58.38;98641.09;2156612;83;20977;-83
2022/07/30 08:06:40;;;;;;;8.95;4.55;;;;;;;25.42;58.09;98636.13;2156846;83;20933;-83
2022/07/30 08:09:41;;;;;;;9.43;4.95;;;;;;;25.52;58.07;98633.38;2156887;83;20949;-83
2022/07/30 08:12:41;;;;;;;10.23;5.05;;;;;;;25.35;58.15;98632.92;2157830;83;20929;-84
2022/07/30 08:15:41;;;;;;;16.05;4.60;;;;;;;25.46;57.96;98634.17;2157689;83;20977;-84
2022/07/30 08:18:44;;;;;;;8.68;4.62;;;;;;;25.39;57.89;98632.28;2158060;83;21317;-82
2022/07/30 08:21:45;;;;;;;11.25;5.28;;;;;;;25.27;57.98;98631.11;2158082;83;20945;-82
2022/07/30 08:24:45;;;;;;;6.97;5.00;;;;;;;25.16;57.92;98628.59;2158516;83;20965;-82
2022/07/30 08:27:46;;;;;;;9.08;5.85;;;;;;;25.20;58.50;98637.70;2158652;83;20948;-83
2022/07/30 08:30:48;;;;;;;12.80;4.95;;;;;;;25.16;58.17;98631.26;2158147;83;20921;-84
2022/07/30 08:33:47;;;;;;;13.58;5.33;;;;;;;25.14;58.52;98631.30;2157735;83;20929;-82
2022/07/30 08:36:47;;;;;;;7.62;5.30;;;;;;;25.14;58.27;98633.98;2157694;83;21324;-83
2022/07/30 08:39:51;;;;;;;14.33;5.95;;;;;;;24.87;58.48;98631.31;2157906;83;21041;-81
2022/07/30 08:42:51;;;;;;;18.00;5.28;;;;;;;24.69;58.19;98629.95;2157463;83;20929;-82
2022/07/30 08:45:51;;;;;;;11.10;6.00;;;;;;;24.49;56.50;98629.18;2157275;83;20933;-82
2022/07/30 08:48:52;;;;;;;10.18;5.53;;;;;;;24.48;57.80;98622.98;2156796;83;20933;-84
2022/07/30 08:51:52;;;;;;;10.40;5.15;;;;;;;24.40;57.59;98618.02;2156831;83;20962;-82
2022/07/30 08:54:53;;;;;;;11.15;5.42;;;;;;;24.23;58.51;98610.34;2156884;83;20909;-83
2022/07/30 08:57:53;;;;;;;11.68;5.78;;;;;;;24.14;58.98;98607.64;2160719;82;21001;-83
2022/07/30 09:00:53;;;;;;;9.60;5.37;;;;;;;24.09;59.49;98609.66;2163293;82;20969;-83
2022/07/30 09:03:54;;;;;;;39.38;8.05;;;;;;;24.10;59.42;98609.59;2220286;80;20945;-82
2022/07/30 09:06:56;;;;;;;7.47;5.50;;;;;;;24.26;59.60;98604.86;2219484;79;20873;-84
2022/07/30 09:09:54;;;;;;;7.85;5.50;;;;;;;24.43;59.58;98602.33;2219541;79;20968;-83
2022/07/30 09:12:55;;;;;;;8.40;5.90;;;;;;;24.45;59.21;98600.45;2220204;79;20936;-84
2022/07/30 09:15:55;;;;;;;8.35;5.10;;;;;;;24.64;58.76;98597.75;2220239;80;20905;-84
2022/07/30 09:18:56;;;;;;;10.25;5.95;;;;;;;24.88;58.78;98597.01;2220778;79;20909;-83
2022/07/30 09:21:56;;;;;;;9.60;5.00;;;;;;;24.93;58.35;98587.83;2220796;79;20988;-82
2022/07/30 09:24:56;;;;;;;14.10;6.30;;;;;;;24.78;58.11;98586.78;2220298;79;20873;-84
2022/07/30 09:27:57;;;;;;;9.58;5.72;;;;;;;24.81;58.71;98584.91;2220275;80;20960;-82
2022/07/30 09:30:57;;;;;;;14.38;6.47;;;;;;;25.11;58.50;98591.40;2220348;79;20921;-83
2022/07/30 09:33:58;;;;;;;11.43;6.20;;;;;;;25.21;57.47;98585.15;2219385;80;21795;-83
2022/07/30 09:36:58;;;;;;;11.33;6.12;;;;;;;25.18;58.04;98587.98;2220142;80;20905;-82
2022/07/30 09:39:59;;;;;;;13.22;5.42;;;;;;;25.58;57.12;98584.95;2220659;79;21068;-83
2022/07/30 09:42:59;;;;;;;13.15;5.58;;;;;;;25.75;56.96;98576.06;2221478;79;21288;-83
2022/07/30 09:46:00;;;;;;;6.25;5.65;;;;;;;25.96;55.99;98574.89;2220996;79;20948;-83
2022/07/30 09:49:00;;;;;;;7.95;5.17;;;;;;;26.29;55.92;98577.54;2221449;79;20877;-84
2022/07/30 09:52:00;;;;;;;13.88;5.90;;;;;;;26.45;55.28;98573.55;2221178;79;20932;-85
2022/07/30 09:55:01;;;;;;;6.45;5.30;;;;;;;25.99;55.55;98580.08;2221417;79;20889;-85
2022/07/30 09:58:01;;;;;;;12.35;5.83;;;;;;;25.97;55.62;98578.43;2225642;79;20968;-85
2022/07/30 10:01:01;;;;;;;7.15;5.72;;;;;;;26.21;55.69;98576.24;2228728;79;20936;-84
2022/07/30 10:04:02;;;;;;;9.48;5.83;;;;;;;26.27;55.26;98578.10;2229315;79;20896;-87
2022/07/30 10:07:02;;;;;;;10.08;6.00;;;;;;;26.56;52.76;98576.48;2229342;79;20932;-85
2022/07/30 10:10:03;;;;;;;13.15;6.50;;;;;;;26.86;53.18;98570.30;2229036;79;20963;-84
2022/07/30 10:13:06;;;;;;;10.08;6.10;;;;;;;26.98;53.45;98570.13;2229349;79;20932;-84
2022/07/30 10:16:03;;;;;;;12.93;5.90;;;;;;;26.92;49.96;98561.94;2228404;79;20931;-83
2022/07/30 10:19:04;;;;;;;6.87;5.72;;;;;;;26.75;47.56;98558.02;2227725;79;20885;-84
2022/07/30 10:22:04;;;;;;;10.40;6.10;;;;;;;26.60;47.04;98548.59;2228054;80;20944;-83
2022/07/30 10:25:05;;;;;;;19.07;6.05;;;;;;;26.43;46.66;98545.16;2228817;80;20916;-84
2022/07/30 10:28:05;;;;;;;7.65;5.40;;;;;;;26.48;50.51;98537.73;2228596;79;20872;-84
2022/07/30 10:31:05;;;;;;;9.20;5.75;;;;;;;26.56;43.11;98537.67;2228853;79;20919;-83
2022/07/30 10:34:06;;;;;;;11.10;6.55;;;;;;;26.49;43.70;98548.34;2228524;79;20953;-83
2022/07/30 10:37:06;;;;;;;11.25;6.42;;;;;;;26.56;48.09;98551.05;2228033;79;20943;-83
2022/07/30 10:40:07;;;;;;;13.85;7.12;;;;;;;26.68;51.29;98543.27;2227657;79;21386;-84
2022/07/30 10:43:07;;;;;;;10.30;6.40;;;;;;;26.79;52.92;98539.48;2228686;79;20905;-84
2022/07/30 10:46:07;;;;;;;11.18;6.40;;;;;;;26.98;51.32;98530.81;2228594;79;20920;-84
2022/07/30 10:49:08;;;;;;;9.60;6.22;;;;;;;26.96;53.21;98528.19;2227828;79;20913;-84
2022/07/30 10:52:08;;;;;;;8.23;5.95;;;;;;;26.81;53.59;98536.23;2227937;80;20932;-85
2022/07/30 10:55:09;;;;;;;14.05;6.35;;;;;;;26.49;51.27;98531.42;2228446;79;20924;-84
2022/07/30 10:58:09;;;;;;;9.85;6.37;;;;;;;26.47;54.21;98527.97;2217972;79;20988;-84
2022/07/30 11:01:09;;;;;;;14.90;6.33;;;;;;;26.58;51.04;98526.88;2208155;80;20952;-85
2022/07/30 11:04:10;;;;;;;6.30;5.70;;;;;;;26.66;54.06;98520.59;2208069;80;21300;-84
2022/07/30 11:07:10;;;;;;;10.58;6.40;;;;;;;26.78;49.78;98519.88;2207668;80;20905;-85
2022/07/30 11:10:11;;;;;;;9.33;6.70;;;;;;;26.97;52.01;98511.64;2207582;80;20945;-84
2022/07/30 11:13:11;;;;;;;8.30;6.58;;;;;;;27.00;53.27;98514.64;2207970;79;20909;-84
2022/07/30 11:16:11;;;;;;;12.78;6.30;;;;;;;26.84;52.46;98503.92;2208196;79;21103;-85
2022/07/30 11:19:15;;;;;;;8.60;6.00;;;;;;;26.70;52.67;98506.55;2208001;79;20877;-85
2022/07/30 11:22:12;;;;;;;10.50;6.40;;;;;;;26.47;53.94;98504.75;2208434;79;20976;-85
2022/07/30 11:25:13;;;;;;;9.68;6.15;;;;;;;26.32;54.48;98509.17;2208440;80;20957;-86
2022/07/30 11:28:13;;;;;;;8.10;6.17;;;;;;;26.13;56.07;98507.59;2208273;81;20902;-86
2022/07/30 11:31:13;;;;;;;11.45;5.80;;;;;;;25.86;56.55;98504.16;2208662;79;20949;-85
2022/07/30 11:34:14;;;;;;;13.93;6.12;;;;;;;25.77;57.91;98503.80;2208790;79;20929;-85
2022/07/30 11:37:16;;;;;;;12.00;6.70;;;;;;;25.62;57.91;98498.79;2208657;79;20969;-86
2022/07/30 11:40:15;;;;;;;10.08;6.70;;;;;;;25.45;58.64;98492.16;2208705;79;20979;-85
2022/07/30 11:43:16;;;;;;;8.50;6.40;;;;;;;25.26;59.48;98498.48;2208828;79;20944;-84
2022/07/30 11:46:22;;;;;;;12.75;6.80;;;;;;;24.94;60.85;98489.44;2208868;80;20937;-85
2022/07/30 11:49:22;;;;;;;7.75;6.42;;;;;;;24.73;61.42;98490.06;2208181;79;20901;-84
2022/07/30 11:52:23;;;;;;;11.28;6.62;;;;;;;24.58;62.88;98490.84;2208492;80;20925;-85
2022/07/30 11:55:24;;;;;;;9.18;6.28;;;;;;;24.37;63.36;98491.92;2208406;81;20910;-84
2022/07/30 11:58:23;;;;;;;9.58;6.70;;;;;;;24.34;63.73;98490.73;2208020;79;20929;-84
2022/07/30 12:01:24;;;;;;;11.95;6.75;;;;;;;24.25;63.97;98487.13;2208355;79;20917;-84
2022/07/30 12:04:24;;;;;;;9.70;6.90;;;;;;;24.26;64.30;98486.19;2208306;79;20889;-84
2022/07/30 12:07:25;;;;;;;7.92;6.70;;;;;;;24.34;64.20;98488.94;2208302;79;20934;-84
2022/07/30 12:10:25;;;;;;;8.98;6.72;;;;;;;24.37;64.19;98487.92;2208026;79;20937;-84
2022/07/30 12:13:25;;;;;;;10.43;6.65;;;;;;;24.37;64.06;98494.59;2207659;79;20902;-84
2022/07/30 12:16:26;;;;;;;9.03;6.72;;;;;;;24.38;63.40;98498.98;2207253;79;21293;-84
2022/07/30 12:19:26;;;;;;;9.95;6.47;;;;;;;24.37;63.49;98501.26;2207286;79;20973;-84
2022/07/30 12:22:26;;;;;;;8.48;6.30;;;;;;;24.34;64.99;98496.94;2207078;80;20976;-84
2022/07/30 12:25:27;;;;;;;8.03;6.15;;;;;;;24.23;65.10;98485.86;2207053;81;21288;-84
2022/07/30 12:28:28;;;;;;;26.93;20.57;;;;;;;24.19;66.38;98484.76;2206705;79;20960;-85
2022/07/30 12:31:28;;;;;;;170.87;144.02;;;;;;;24.16;67.42;98483.11;2207019;79;20917;-84
2022/07/30 12:34:28;;;;;;;68.85;56.23;;;;;;;24.08;68.26;98469.28;2206951;80;21325;-84
2022/07/30 12:37:28;;;;;;;56.55;44.13;;;;;;;24.02;69.34;98473.58;2206659;79;20958;-83
2022/07/30 12:40:29;;;;;;;24.98;14.87;;;;;;;23.99;69.64;98467.06;2206761;79;20972;-84
2022/07/30 12:43:29;;;;;;;28.70;23.00;;;;;;;24.03;69.75;98466.84;2206969;79;20921;-84
2022/07/30 12:46:30;;;;;;;14.87;10.75;;;;;;;24.11;69.97;98462.47;2207477;79;20944;-84
2022/07/30 12:49:30;;;;;;;14.30;9.73;;;;;;;24.14;69.48;98464.52;2207818;79;20893;-84
2022/07/30 12:52:30;;;;;;;19.67;13.68;;;;;;;24.23;69.31;98455.20;2207809;79;21365;-84
2022/07/30 12:55:31;;;;;;;33.15;18.02;;;;;;;24.41;69.21;98458.81;2207811;79;20977;-83
2022/07/30 12:58:31;;;;;;;14.80;11.28;;;;;;;24.61;68.71;98456.47;2218464;79;20940;-83
2022/07/30 13:01:32;;;;;;;9.95;8.43;;;;;;;24.73;68.87;98454.03;2228545;79;21003;-84
2022/07/30 13:04:32;;;;;;;9.25;7.00;;;;;;;24.95;64.56;98445.77;2228163;79;20904;-84
2022/07/30 13:07:33;;;;;;;10.35;7.15;;;;;;;25.09;63.85;98442.41;2228084;79;20873;-83
2022/07/30 13:10:33;;;;;;;7.12;6.20;;;;;;;25.14;61.17;98447.03;2228095;79;20928;-84
2022/07/30 13:13:33;;;;;;;7.22;6.28;;;;;;;25.23;60.57;98449.23;2228162;79;20893;-83
2022/07/30 13:16:34;;;;;;;7.45;6.30;;;;;;;25.32;61.20;98442.06;2228239;79;20901;-84
2022/07/30 13:19:34;;;;;;;10.30;6.87;;;;;;;25.46;60.41;98439.11;2228298;79;20957;-84
2022/07/30 13:22:34;;;;;;;8.58;6.53;;;;;;;25.51;59.69;98437.91;2228611;79;20959;-83
2022/07/30 13:25:35;;;;;;;10.93;6.67;;;;;;;25.40;59.39;98432.30;2228341;80;20901;-84
2022/07/30 13:28:35;;;;;;;7.35;5.70;;;;;;;25.32;59.87;98428.70;2228623;79;20920;-83
2022/07/30 13:31:36;;;;;;;7.85;5.92;;;;;;;25.24;60.70;98428.26;2228961;79;20917;-84
2022/07/30 13:34:36;;;;;;;8.05;5.87;;;;;;;25.26;60.41;98418.83;2229264;79;20924;-83
2022/07/30 13:37:37;;;;;;;6.97;6.20;;;;;;;25.24;59.98;98417.58;2229251;79;20904;-84
2022/07/30 13:40:37;;;;;;;6.92;6.10;;;;;;;25.23;59.69;98416.33;2228407;79;21027;-84
2022/07/30 13:43:37;;;;;;;6.65;6.00;;;;;;;25.25;59.29;98419.30;2228795;80;20936;-84
2022/07/30 13:46:38;;;;;;;7.97;6.33;;;;;;;25.27;58.92;98416.55;2229273;79;20912;-84
2022/07/30 13:49:42;;;;;;;11.25;6.47;;;;;;;25.42;60.18;98414.84;2229093;79;20869;-85
2022/07/30 13:52:38;;;;;;;7.97;5.70;;;;;;;25.55;60.19;98415.89;2229159;79;20899;-84
2022/07/30 13:55:41;;;;;;;7.25;5.75;;;;;;;25.61;59.92;98420.42;2229040;79;20908;-84
2022/07/30 13:58:39;;;;;;;5.90;5.40;;;;;;;25.44;58.75;98414.28;2218859;79;20940;-85
2022/07/30 14:01:40;;;;;;;10.88;6.17;;;;;;;25.20;58.51;98419.16;2207917;80;20941;-84
2022/07/30 14:04:40;;;;;;;221.28;21.17;;;;;;;25.00;59.05;98417.52;2207399;79;20913;-83
2022/07/30 14:07:41;;;;;;;10.03;5.87;;;;;;;24.88;59.79;98412.33;2207331;79;21254;-84